sensor_id;sensor_type;location;lat;lon;timestamp;P1;durP1;ratioP1;P2;durP2;ratioP2
11486;SDS011;10510;47.942;9.442;2023-12-20T00:01:10;3.63;;;1.92;;
11486;SDS011;10510;47.942;9.442;2023-12-20T00:03:10;3.67;;;2.00;;
11486;SDS011;10510;47.942;9.442;2023-12-20T00:05:10;2.70;;;1.83;;
11486;SDS011;10510;47.942;9.442;2023-12-20T00:07:10;2.75;;;1.58;;
11486;SDS011;10510;47.942;9.442;2023-12-20T00:09:11;4.05;;;1.90;;
11486;SDS011;10510;47.942;9.442;2023-12-20T00:11:11;5.40;;;2.63;;
11486;SDS011;10510;47.942;9.442;2023-12-20T00:13:11;3.20;;;1.85;;
11486;SDS011;10510;47.942;9.442;2023-12-20T00:15:11;3.63;;;1.80;;
11486;SDS011;10510;47.942;9.442;2023-12-20T00:17:12;2.55;;;1.75;;
11486;SDS011;10510;47.942;9.442;2023-12-20T00:19:12;3.35;;;2.00;;
11486;SDS011;10510;47.942;9.442;2023-12-20T00:21:12;3.28;;;1.75;;
11486;SDS011;10510;47.942;9.442;2023-12-20T00:23:13;4.20;;;1.70;;
11486;SDS011;10510;47.942;9.442;2023-12-20T00:25:13;3.53;;;2.17;;
11486;SDS011;10510;47.942;9.442;2023-12-20T00:27:13;3.17;;;2.08;;
11486;SDS011;10510;47.942;9.442;2023-12-20T00:29:14;4.68;;;2.25;;
11486;SDS011;10510;47.942;9.442;2023-12-20T00:31:14;5.00;;;2.22;;
11486;SDS011;10510;47.942;9.442;2023-12-20T00:33:14;3.28;;;1.58;;
11486;SDS011;10510;47.942;9.442;2023-12-20T00:35:18;3.88;;;2.15;;
11486;SDS011;10510;47.942;9.442;2023-12-20T00:37:18;4.15;;;2.13;;
11486;SDS011;10510;47.942;9.442;2023-12-20T00:39:19;3.78;;;1.67;;
11486;SDS011;10510;47.942;9.442;2023-12-20T00:41:19;3.35;;;1.80;;
11486;SDS011;10510;47.942;9.442;2023-12-20T00:43:20;4.53;;;1.83;;
11486;SDS011;10510;47.942;9.442;2023-12-20T00:45:20;4.20;;;1.75;;
11486;SDS011;10510;47.942;9.442;2023-12-20T00:47:20;3.20;;;1.85;;
11486;SDS011;10510;47.942;9.442;2023-12-20T00:49:20;3.35;;;2.00;;
11486;SDS011;10510;47.942;9.442;2023-12-20T00:51:21;3.72;;;1.75;;
11486;SDS011;10510;47.942;9.442;2023-12-20T00:53:22;4.18;;;2.15;;
11486;SDS011;10510;47.942;9.442;2023-12-20T00:55:22;3.67;;;1.75;;
11486;SDS011;10510;47.942;9.442;2023-12-20T00:57:22;1.92;;;1.30;;
11486;SDS011;10510;47.942;9.442;2023-12-20T00:59:23;3.35;;;1.67;;
11486;SDS011;10510;47.942;9.442;2023-12-20T01:01:23;1.50;;;1.30;;
11486;SDS011;10510;47.942;9.442;2023-12-20T01:03:24;2.47;;;1.60;;
11486;SDS011;10510;47.942;9.442;2023-12-20T01:05:24;1.55;;;1.30;;
11486;SDS011;10510;47.942;9.442;2023-12-20T01:07:24;2.00;;;1.40;;
11486;SDS011;10510;47.942;9.442;2023-12-20T01:09:24;2.53;;;1.50;;
11486;SDS011;10510;47.942;9.442;2023-12-20T01:11:26;2.05;;;1.30;;
11486;SDS011;10510;47.942;9.442;2023-12-20T01:13:26;2.17;;;1.20;;
11486;SDS011;10510;47.942;9.442;2023-12-20T01:15:27;3.40;;;1.40;;
11486;SDS011;10510;47.942;9.442;2023-12-20T01:17:27;2.33;;;1.30;;
11486;SDS011;10510;47.942;9.442;2023-12-20T01:19:27;2.50;;;1.52;;
11486;SDS011;10510;47.942;9.442;2023-12-20T01:21:28;2.33;;;1.40;;
11486;SDS011;10510;47.942;9.442;2023-12-20T01:23:28;2.13;;;1.20;;
11486;SDS011;10510;47.942;9.442;2023-12-20T01:25:28;2.35;;;1.20;;
11486;SDS011;10510;47.942;9.442;2023-12-20T01:27:29;1.92;;;1.08;;
11486;SDS011;10510;47.942;9.442;2023-12-20T01:29:31;3.20;;;1.55;;
11486;SDS011;10510;47.942;9.442;2023-12-20T01:31:31;2.33;;;1.20;;
11486;SDS011;10510;47.942;9.442;2023-12-20T01:33:31;2.42;;;1.70;;
11486;SDS011;10510;47.942;9.442;2023-12-20T01:35:31;1.98;;;1.27;;
11486;SDS011;10510;47.942;9.442;2023-12-20T01:37:31;4.47;;;1.52;;
11486;SDS011;10510;47.942;9.442;2023-12-20T01:39:32;2.00;;;1.23;;
11486;SDS011;10510;47.942;9.442;2023-12-20T01:41:32;1.77;;;0.98;;
11486;SDS011;10510;47.942;9.442;2023-12-20T01:43:32;1.33;;;1.05;;
11486;SDS011;10510;47.942;9.442;2023-12-20T01:45:33;2.30;;;1.20;;
11486;SDS011;10510;47.942;9.442;2023-12-20T01:47:33;2.50;;;1.30;;
11486;SDS011;10510;47.942;9.442;2023-12-20T01:49:33;2.15;;;1.38;;
11486;SDS011;10510;47.942;9.442;2023-12-20T01:51:34;1.58;;;1.10;;
11486;SDS011;10510;47.942;9.442;2023-12-20T01:53:35;2.42;;;1.63;;
11486;SDS011;10510;47.942;9.442;2023-12-20T01:55:36;2.45;;;1.30;;
11486;SDS011;10510;47.942;9.442;2023-12-20T01:57:39;2.00;;;1.33;;
11486;SDS011;10510;47.942;9.442;2023-12-20T01:59:43;2.53;;;1.42;;
11486;SDS011;10510;47.942;9.442;2023-12-20T02:01:44;2.15;;;1.38;;
11486;SDS011;10510;47.942;9.442;2023-12-20T02:03:44;2.28;;;1.25;;
11486;SDS011;10510;47.942;9.442;2023-12-20T02:05:45;3.58;;;1.52;;
11486;SDS011;10510;47.942;9.442;2023-12-20T02:07:46;3.10;;;1.50;;
11486;SDS011;10510;47.942;9.442;2023-12-20T02:09:47;4.45;;;1.20;;
11486;SDS011;10510;47.942;9.442;2023-12-20T02:11:47;3.90;;;1.90;;
11486;SDS011;10510;47.942;9.442;2023-12-20T02:13:47;2.15;;;1.20;;
11486;SDS011;10510;47.942;9.442;2023-12-20T02:15:47;2.53;;;1.23;;
11486;SDS011;10510;47.942;9.442;2023-12-20T02:17:48;3.65;;;1.35;;
11486;SDS011;10510;47.942;9.442;2023-12-20T02:19:49;2.13;;;1.50;;
11486;SDS011;10510;47.942;9.442;2023-12-20T02:21:49;1.77;;;1.10;;
11486;SDS011;10510;47.942;9.442;2023-12-20T02:23:50;1.77;;;1.15;;
11486;SDS011;10510;47.942;9.442;2023-12-20T02:25:50;2.20;;;1.48;;
11486;SDS011;10510;47.942;9.442;2023-12-20T02:27:51;3.35;;;1.67;;
11486;SDS011;10510;47.942;9.442;2023-12-20T02:29:52;3.00;;;1.50;;
11486;SDS011;10510;47.942;9.442;2023-12-20T02:31:52;2.05;;;1.20;;
11486;SDS011;10510;47.942;9.442;2023-12-20T02:33:52;2.03;;;1.20;;
11486;SDS011;10510;47.942;9.442;2023-12-20T02:35:52;2.13;;;1.40;;
11486;SDS011;10510;47.942;9.442;2023-12-20T02:37:53;3.25;;;1.27;;
11486;SDS011;10510;47.942;9.442;2023-12-20T02:39:53;2.40;;;1.35;;
11486;SDS011;10510;47.942;9.442;2023-12-20T02:41:53;1.92;;;1.35;;
11486;SDS011;10510;47.942;9.442;2023-12-20T02:43:53;1.73;;;1.20;;
11486;SDS011;10510;47.942;9.442;2023-12-20T02:45:54;1.77;;;1.13;;
11486;SDS011;10510;47.942;9.442;2023-12-20T02:47:54;3.60;;;1.77;;
11486;SDS011;10510;47.942;9.442;2023-12-20T02:49:56;4.15;;;1.67;;
11486;SDS011;10510;47.942;9.442;2023-12-20T02:51:56;7.75;;;2.28;;
11486;SDS011;10510;47.942;9.442;2023-12-20T02:53:56;3.03;;;1.50;;
11486;SDS011;10510;47.942;9.442;2023-12-20T02:55:57;2.70;;;1.55;;
11486;SDS011;10510;47.942;9.442;2023-12-20T02:57:57;1.50;;;1.10;;
11486;SDS011;10510;47.942;9.442;2023-12-20T02:59:57;1.92;;;1.00;;
11486;SDS011;10510;47.942;9.442;2023-12-20T03:01:58;1.95;;;1.27;;
11486;SDS011;10510;47.942;9.442;2023-12-20T03:03:58;2.35;;;1.35;;
11486;SDS011;10510;47.942;9.442;2023-12-20T03:05:58;3.25;;;1.27;;
11486;SDS011;10510;47.942;9.442;2023-12-20T03:08:00;2.33;;;1.25;;
11486;SDS011;10510;47.942;9.442;2023-12-20T03:10:00;2.42;;;1.50;;
11486;SDS011;10510;47.942;9.442;2023-12-20T03:12:00;2.38;;;1.45;;
11486;SDS011;10510;47.942;9.442;2023-12-20T03:14:01;2.60;;;1.55;;
11486;SDS011;10510;47.942;9.442;2023-12-20T03:16:01;2.50;;;1.30;;
11486;SDS011;10510;47.942;9.442;2023-12-20T03:18:07;3.05;;;1.50;;
11486;SDS011;10510;47.942;9.442;2023-12-20T03:20:08;2.92;;;1.50;;
11486;SDS011;10510;47.942;9.442;2023-12-20T03:22:08;2.22;;;1.50;;
11486;SDS011;10510;47.942;9.442;2023-12-20T03:24:08;3.28;;;1.60;;
11486;SDS011;10510;47.942;9.442;2023-12-20T03:26:09;4.53;;;2.20;;
11486;SDS011;10510;47.942;9.442;2023-12-20T03:28:09;2.80;;;1.52;;
11486;SDS011;10510;47.942;9.442;2023-12-20T03:30:09;2.97;;;1.73;;
11486;SDS011;10510;47.942;9.442;2023-12-20T03:32:10;4.65;;;1.80;;
11486;SDS011;10510;47.942;9.442;2023-12-20T03:34:10;4.15;;;2.10;;
11486;SDS011;10510;47.942;9.442;2023-12-20T03:36:11;3.53;;;1.90;;
11486;SDS011;10510;47.942;9.442;2023-12-20T03:38:11;7.40;;;3.03;;
11486;SDS011;10510;47.942;9.442;2023-12-20T03:40:11;4.47;;;2.95;;
11486;SDS011;10510;47.942;9.442;2023-12-20T03:42:12;3.40;;;2.03;;
11486;SDS011;10510;47.942;9.442;2023-12-20T03:44:13;5.75;;;2.60;;
11486;SDS011;10510;47.942;9.442;2023-12-20T03:46:13;5.90;;;2.65;;
11486;SDS011;10510;47.942;9.442;2023-12-20T03:48:13;7.95;;;2.40;;
11486;SDS011;10510;47.942;9.442;2023-12-20T03:50:14;6.30;;;2.80;;
11486;SDS011;10510;47.942;9.442;2023-12-20T03:52:14;4.97;;;2.50;;
11486;SDS011;10510;47.942;9.442;2023-12-20T03:54:14;5.53;;;2.85;;
11486;SDS011;10510;47.942;9.442;2023-12-20T03:56:14;6.18;;;3.25;;
11486;SDS011;10510;47.942;9.442;2023-12-20T03:58:15;5.13;;;2.72;;
11486;SDS011;10510;47.942;9.442;2023-12-20T04:00:15;8.25;;;3.80;;
11486;SDS011;10510;47.942;9.442;2023-12-20T04:02:16;11.27;;;4.10;;
11486;SDS011;10510;47.942;9.442;2023-12-20T04:04:18;6.95;;;3.85;;
11486;SDS011;10510;47.942;9.442;2023-12-20T04:06:18;10.07;;;3.78;;
11486;SDS011;10510;47.942;9.442;2023-12-20T04:08:19;7.28;;;3.90;;
11486;SDS011;10510;47.942;9.442;2023-12-20T04:10:20;7.75;;;4.13;;
11486;SDS011;10510;47.942;9.442;2023-12-20T04:12:20;7.07;;;4.30;;
11486;SDS011;10510;47.942;9.442;2023-12-20T04:14:20;7.15;;;3.83;;
11486;SDS011;10510;47.942;9.442;2023-12-20T04:16:20;10.50;;;4.45;;
11486;SDS011;10510;47.942;9.442;2023-12-20T04:18:21;9.55;;;4.20;;
11486;SDS011;10510;47.942;9.442;2023-12-20T04:20:21;8.27;;;4.45;;
11486;SDS011;10510;47.942;9.442;2023-12-20T04:22:21;7.10;;;4.38;;
11486;SDS011;10510;47.942;9.442;2023-12-20T04:24:22;8.77;;;4.35;;
11486;SDS011;10510;47.942;9.442;2023-12-20T04:26:22;7.22;;;3.60;;
11486;SDS011;10510;47.942;9.442;2023-12-20T04:28:22;10.05;;;3.83;;
11486;SDS011;10510;47.942;9.442;2023-12-20T04:30:23;9.80;;;4.22;;
11486;SDS011;10510;47.942;9.442;2023-12-20T04:32:24;13.07;;;4.75;;
11486;SDS011;10510;47.942;9.442;2023-12-20T04:34:24;8.48;;;4.47;;
11486;SDS011;10510;47.942;9.442;2023-12-20T04:36:24;11.05;;;3.85;;
11486;SDS011;10510;47.942;9.442;2023-12-20T04:38:26;11.25;;;4.38;;
11486;SDS011;10510;47.942;9.442;2023-12-20T04:40:27;9.10;;;4.28;;
11486;SDS011;10510;47.942;9.442;2023-12-20T04:42:27;8.95;;;4.32;;
11486;SDS011;10510;47.942;9.442;2023-12-20T04:44:27;7.80;;;4.03;;
11486;SDS011;10510;47.942;9.442;2023-12-20T04:46:28;9.27;;;4.38;;
11486;SDS011;10510;47.942;9.442;2023-12-20T04:48:28;11.02;;;4.47;;
11486;SDS011;10510;47.942;9.442;2023-12-20T04:50:28;8.65;;;4.40;;
11486;SDS011;10510;47.942;9.442;2023-12-20T04:52:28;8.23;;;3.97;;
11486;SDS011;10510;47.942;9.442;2023-12-20T04:54:29;7.47;;;4.18;;
11486;SDS011;10510;47.942;9.442;2023-12-20T04:56:29;8.85;;;3.78;;
11486;SDS011;10510;47.942;9.442;2023-12-20T04:58:29;9.32;;;4.30;;
11486;SDS011;10510;47.942;9.442;2023-12-20T05:00:29;6.10;;;3.45;;
11486;SDS011;10510;47.942;9.442;2023-12-20T05:02:30;8.38;;;4.72;;
11486;SDS011;10510;47.942;9.442;2023-12-20T05:04:30;7.57;;;3.40;;
11486;SDS011;10510;47.942;9.442;2023-12-20T05:06:30;12.85;;;3.72;;
11486;SDS011;10510;47.942;9.442;2023-12-20T05:08:31;8.32;;;3.58;;
11486;SDS011;10510;47.942;9.442;2023-12-20T05:10:31;10.20;;;3.58;;
11486;SDS011;10510;47.942;9.442;2023-12-20T05:12:31;6.75;;;3.60;;
11486;SDS011;10510;47.942;9.442;2023-12-20T05:14:31;7.95;;;3.58;;
11486;SDS011;10510;47.942;9.442;2023-12-20T05:16:32;7.05;;;3.60;;
11486;SDS011;10510;47.942;9.442;2023-12-20T05:18:32;6.55;;;3.28;;
11486;SDS011;10510;47.942;9.442;2023-12-20T05:20:32;8.48;;;3.47;;
11486;SDS011;10510;47.942;9.442;2023-12-20T05:22:32;7.25;;;3.75;;
11486;SDS011;10510;47.942;9.442;2023-12-20T05:24:33;9.50;;;3.63;;
11486;SDS011;10510;47.942;9.442;2023-12-20T05:26:33;8.05;;;4.22;;
11486;SDS011;10510;47.942;9.442;2023-12-20T05:28:33;6.60;;;3.20;;
11486;SDS011;10510;47.942;9.442;2023-12-20T05:30:34;8.95;;;3.00;;
11486;SDS011;10510;47.942;9.442;2023-12-20T05:32:34;5.43;;;2.65;;
11486;SDS011;10510;47.942;9.442;2023-12-20T05:34:34;8.05;;;3.85;;
11486;SDS011;10510;47.942;9.442;2023-12-20T05:36:34;5.53;;;3.08;;
11486;SDS011;10510;47.942;9.442;2023-12-20T05:38:36;7.53;;;3.55;;
11486;SDS011;10510;47.942;9.442;2023-12-20T05:40:36;6.82;;;2.72;;
11486;SDS011;10510;47.942;9.442;2023-12-20T05:42:37;5.82;;;2.95;;
11486;SDS011;10510;47.942;9.442;2023-12-20T05:44:37;6.53;;;3.13;;
11486;SDS011;10510;47.942;9.442;2023-12-20T05:46:38;7.57;;;3.33;;
11486;SDS011;10510;47.942;9.442;2023-12-20T05:48:39;4.97;;;3.00;;
11486;SDS011;10510;47.942;9.442;2023-12-20T05:50:39;5.90;;;2.97;;
11486;SDS011;10510;47.942;9.442;2023-12-20T05:52:40;7.70;;;3.65;;
11486;SDS011;10510;47.942;9.442;2023-12-20T05:54:41;6.55;;;3.33;;
11486;SDS011;10510;47.942;9.442;2023-12-20T05:56:41;6.00;;;3.03;;
11486;SDS011;10510;47.942;9.442;2023-12-20T05:58:41;8.25;;;3.55;;
11486;SDS011;10510;47.942;9.442;2023-12-20T06:00:42;7.07;;;3.75;;
11486;SDS011;10510;47.942;9.442;2023-12-20T06:02:42;6.60;;;3.67;;
11486;SDS011;10510;47.942;9.442;2023-12-20T06:04:43;5.28;;;3.17;;
11486;SDS011;10510;47.942;9.442;2023-12-20T06:06:44;7.13;;;3.95;;
11486;SDS011;10510;47.942;9.442;2023-12-20T06:08:44;9.73;;;3.17;;
11486;SDS011;10510;47.942;9.442;2023-12-20T06:10:44;5.85;;;3.38;;
11486;SDS011;10510;47.942;9.442;2023-12-20T06:12:44;6.38;;;3.00;;
11486;SDS011;10510;47.942;9.442;2023-12-20T06:14:47;8.38;;;3.78;;
11486;SDS011;10510;47.942;9.442;2023-12-20T06:16:47;6.40;;;2.80;;
11486;SDS011;10510;47.942;9.442;2023-12-20T06:18:47;9.38;;;4.07;;
11486;SDS011;10510;47.942;9.442;2023-12-20T06:20:48;9.75;;;3.95;;
11486;SDS011;10510;47.942;9.442;2023-12-20T06:22:48;6.75;;;3.67;;
11486;SDS011;10510;47.942;9.442;2023-12-20T06:24:48;5.85;;;3.45;;
11486;SDS011;10510;47.942;9.442;2023-12-20T06:26:48;8.27;;;3.47;;
11486;SDS011;10510;47.942;9.442;2023-12-20T06:28:49;6.55;;;3.80;;
11486;SDS011;10510;47.942;9.442;2023-12-20T06:30:49;8.55;;;3.53;;
11486;SDS011;10510;47.942;9.442;2023-12-20T06:32:51;6.88;;;3.60;;
11486;SDS011;10510;47.942;9.442;2023-12-20T06:34:52;8.63;;;4.05;;
11486;SDS011;10510;47.942;9.442;2023-12-20T06:36:53;7.90;;;3.80;;
11486;SDS011;10510;47.942;9.442;2023-12-20T06:38:53;7.18;;;3.63;;
11486;SDS011;10510;47.942;9.442;2023-12-20T06:40:53;11.70;;;3.58;;
11486;SDS011;10510;47.942;9.442;2023-12-20T06:42:54;7.47;;;4.05;;
11486;SDS011;10510;47.942;9.442;2023-12-20T06:44:54;8.63;;;4.07;;
11486;SDS011;10510;47.942;9.442;2023-12-20T06:46:54;7.63;;;3.90;;
11486;SDS011;10510;47.942;9.442;2023-12-20T06:48:55;8.60;;;3.50;;
11486;SDS011;10510;47.942;9.442;2023-12-20T06:50:55;8.38;;;3.80;;
11486;SDS011;10510;47.942;9.442;2023-12-20T06:52:55;5.82;;;3.33;;
11486;SDS011;10510;47.942;9.442;2023-12-20T06:54:55;7.80;;;3.70;;
11486;SDS011;10510;47.942;9.442;2023-12-20T06:56:56;10.30;;;4.55;;
11486;SDS011;10510;47.942;9.442;2023-12-20T06:58:56;8.27;;;3.70;;
11486;SDS011;10510;47.942;9.442;2023-12-20T07:00:56;7.30;;;3.50;;
11486;SDS011;10510;47.942;9.442;2023-12-20T07:02:56;7.00;;;3.63;;
11486;SDS011;10510;47.942;9.442;2023-12-20T07:04:57;6.93;;;3.17;;
11486;SDS011;10510;47.942;9.442;2023-12-20T07:06:57;9.02;;;3.55;;
11486;SDS011;10510;47.942;9.442;2023-12-20T07:09:00;5.85;;;3.15;;
11486;SDS011;10510;47.942;9.442;2023-12-20T07:11:00;5.75;;;3.42;;
11486;SDS011;10510;47.942;9.442;2023-12-20T07:13:00;9.18;;;3.70;;
11486;SDS011;10510;47.942;9.442;2023-12-20T07:15:01;7.82;;;3.17;;
11486;SDS011;10510;47.942;9.442;2023-12-20T07:17:02;7.70;;;3.75;;
11486;SDS011;10510;47.942;9.442;2023-12-20T07:19:02;8.35;;;3.58;;
11486;SDS011;10510;47.942;9.442;2023-12-20T07:21:03;9.93;;;4.13;;
11486;SDS011;10510;47.942;9.442;2023-12-20T07:23:03;7.65;;;4.03;;
11486;SDS011;10510;47.942;9.442;2023-12-20T07:25:04;8.25;;;4.30;;
11486;SDS011;10510;47.942;9.442;2023-12-20T07:27:07;9.30;;;4.40;;
11486;SDS011;10510;47.942;9.442;2023-12-20T07:29:10;15.70;;;7.10;;
11486;SDS011;10510;47.942;9.442;2023-12-20T07:31:10;11.20;;;5.38;;
11486;SDS011;10510;47.942;9.442;2023-12-20T07:33:10;10.40;;;4.85;;
11486;SDS011;10510;47.942;9.442;2023-12-20T07:35:12;9.43;;;4.70;;
11486;SDS011;10510;47.942;9.442;2023-12-20T07:37:12;8.07;;;4.63;;
11486;SDS011;10510;47.942;9.442;2023-12-20T07:39:13;10.82;;;4.88;;
11486;SDS011;10510;47.942;9.442;2023-12-20T07:41:14;11.20;;;6.15;;
11486;SDS011;10510;47.942;9.442;2023-12-20T07:43:16;11.20;;;4.65;;
11486;SDS011;10510;47.942;9.442;2023-12-20T07:45:16;10.70;;;5.97;;
11486;SDS011;10510;47.942;9.442;2023-12-20T07:47:16;8.88;;;5.18;;
11486;SDS011;10510;47.942;9.442;2023-12-20T07:49:21;12.32;;;6.13;;
11486;SDS011;10510;47.942;9.442;2023-12-20T07:51:21;10.68;;;6.35;;
11486;SDS011;10510;47.942;9.442;2023-12-20T07:53:22;11.38;;;7.00;;
11486;SDS011;10510;47.942;9.442;2023-12-20T07:55:22;13.73;;;7.25;;
11486;SDS011;10510;47.942;9.442;2023-12-20T07:57:23;14.88;;;7.35;;
11486;SDS011;10510;47.942;9.442;2023-12-20T07:59:23;11.05;;;6.10;;
11486;SDS011;10510;47.942;9.442;2023-12-20T08:01:23;12.13;;;6.57;;
11486;SDS011;10510;47.942;9.442;2023-12-20T08:03:24;7.15;;;3.97;;
11486;SDS011;10510;47.942;9.442;2023-12-20T08:05:24;8.07;;;4.55;;
11486;SDS011;10510;47.942;9.442;2023-12-20T08:07:24;8.43;;;4.28;;
11486;SDS011;10510;47.942;9.442;2023-12-20T08:09:24;9.50;;;4.68;;
11486;SDS011;10510;47.942;9.442;2023-12-20T08:11:25;8.30;;;4.75;;
11486;SDS011;10510;47.942;9.442;2023-12-20T08:13:26;9.00;;;4.47;;
11486;SDS011;10510;47.942;9.442;2023-12-20T08:15:26;9.20;;;4.53;;
11486;SDS011;10510;47.942;9.442;2023-12-20T08:17:26;8.52;;;4.28;;
11486;SDS011;10510;47.942;9.442;2023-12-20T08:19:27;8.85;;;5.00;;
11486;SDS011;10510;47.942;9.442;2023-12-20T08:21:27;12.93;;;5.40;;
11486;SDS011;10510;47.942;9.442;2023-12-20T08:23:27;9.23;;;5.13;;
11486;SDS011;10510;47.942;9.442;2023-12-20T08:25:28;8.23;;;5.05;;
11486;SDS011;10510;47.942;9.442;2023-12-20T08:27:28;8.80;;;5.20;;
11486;SDS011;10510;47.942;9.442;2023-12-20T08:29:28;8.30;;;5.00;;
11486;SDS011;10510;47.942;9.442;2023-12-20T08:31:29;11.27;;;7.28;;
11486;SDS011;10510;47.942;9.442;2023-12-20T08:33:29;9.95;;;5.72;;
11486;SDS011;10510;47.942;9.442;2023-12-20T08:35:29;13.70;;;4.97;;
11486;SDS011;10510;47.942;9.442;2023-12-20T08:37:31;10.88;;;5.40;;
11486;SDS011;10510;47.942;9.442;2023-12-20T08:39:31;10.20;;;5.88;;
11486;SDS011;10510;47.942;9.442;2023-12-20T08:41:34;10.32;;;5.63;;
11486;SDS011;10510;47.942;9.442;2023-12-20T08:43:35;10.52;;;5.28;;
11486;SDS011;10510;47.942;9.442;2023-12-20T08:45:35;10.02;;;5.80;;
11486;SDS011;10510;47.942;9.442;2023-12-20T08:47:36;11.73;;;5.28;;
11486;SDS011;10510;47.942;9.442;2023-12-20T08:49:36;9.90;;;5.25;;
11486;SDS011;10510;47.942;9.442;2023-12-20T08:51:36;9.82;;;5.30;;
11486;SDS011;10510;47.942;9.442;2023-12-20T08:53:40;10.40;;;5.93;;
11486;SDS011;10510;47.942;9.442;2023-12-20T08:55:40;11.27;;;5.70;;
11486;SDS011;10510;47.942;9.442;2023-12-20T08:57:41;12.80;;;5.90;;
11486;SDS011;10510;47.942;9.442;2023-12-20T08:59:41;11.93;;;5.85;;
11486;SDS011;10510;47.942;9.442;2023-12-20T09:01:41;12.50;;;5.93;;
11486;SDS011;10510;47.942;9.442;2023-12-20T09:03:41;10.57;;;5.28;;
11486;SDS011;10510;47.942;9.442;2023-12-20T09:05:42;12.50;;;6.45;;
11486;SDS011;10510;47.942;9.442;2023-12-20T09:07:42;12.50;;;6.60;;
11486;SDS011;10510;47.942;9.442;2023-12-20T09:09:43;9.93;;;5.88;;
11486;SDS011;10510;47.942;9.442;2023-12-20T09:11:43;14.10;;;6.28;;
11486;SDS011;10510;47.942;9.442;2023-12-20T09:13:46;11.32;;;5.90;;
11486;SDS011;10510;47.942;9.442;2023-12-20T09:15:46;12.00;;;6.63;;
11486;SDS011;10510;47.942;9.442;2023-12-20T09:17:46;10.52;;;5.70;;
11486;SDS011;10510;47.942;9.442;2023-12-20T09:19:47;11.52;;;5.85;;
11486;SDS011;10510;47.942;9.442;2023-12-20T09:21:47;10.35;;;5.63;;
11486;SDS011;10510;47.942;9.442;2023-12-20T09:23:50;10.70;;;5.70;;
11486;SDS011;10510;47.942;9.442;2023-12-20T09:25:50;12.35;;;5.22;;
11486;SDS011;10510;47.942;9.442;2023-12-20T09:27:51;10.27;;;5.55;;
11486;SDS011;10510;47.942;9.442;2023-12-20T09:29:52;10.52;;;5.53;;
11486;SDS011;10510;47.942;9.442;2023-12-20T09:31:53;9.80;;;5.00;;
11486;SDS011;10510;47.942;9.442;2023-12-20T09:33:53;9.15;;;5.40;;
11486;SDS011;10510;47.942;9.442;2023-12-20T09:35:53;11.50;;;5.80;;
11486;SDS011;10510;47.942;9.442;2023-12-20T09:37:54;11.05;;;5.32;;
11486;SDS011;10510;47.942;9.442;2023-12-20T09:39:54;8.00;;;4.78;;
11486;SDS011;10510;47.942;9.442;2023-12-20T09:42:02;9.55;;;5.20;;
11486;SDS011;10510;47.942;9.442;2023-12-20T09:44:06;16.20;;;5.78;;
11486;SDS011;10510;47.942;9.442;2023-12-20T09:46:08;10.80;;;5.40;;
11486;SDS011;10510;47.942;9.442;2023-12-20T09:48:11;9.43;;;5.00;;
11486;SDS011;10510;47.942;9.442;2023-12-20T09:50:14;12.50;;;5.32;;
11486;SDS011;10510;47.942;9.442;2023-12-20T09:52:14;11.23;;;5.25;;
11486;SDS011;10510;47.942;9.442;2023-12-20T09:54:17;7.95;;;4.82;;
11486;SDS011;10510;47.942;9.442;2023-12-20T09:56:18;8.82;;;4.32;;
11486;SDS011;10510;47.942;9.442;2023-12-20T09:58:18;11.77;;;4.85;;
11486;SDS011;10510;47.942;9.442;2023-12-20T10:00:18;11.50;;;4.88;;
11486;SDS011;10510;47.942;9.442;2023-12-20T10:02:19;10.15;;;4.78;;
11486;SDS011;10510;47.942;9.442;2023-12-20T10:04:24;9.07;;;4.93;;
11486;SDS011;10510;47.942;9.442;2023-12-20T10:06:25;19.70;;;5.75;;
11486;SDS011;10510;47.942;9.442;2023-12-20T10:08:26;8.98;;;4.10;;
11486;SDS011;10510;47.942;9.442;2023-12-20T10:10:26;9.38;;;4.28;;
11486;SDS011;10510;47.942;9.442;2023-12-20T10:12:27;8.40;;;4.15;;
11486;SDS011;10510;47.942;9.442;2023-12-20T10:14:27;6.65;;;3.88;;
11486;SDS011;10510;47.942;9.442;2023-12-20T10:16:28;7.30;;;4.30;;
11486;SDS011;10510;47.942;9.442;2023-12-20T10:18:29;5.68;;;3.42;;
11486;SDS011;10510;47.942;9.442;2023-12-20T10:20:30;6.32;;;3.92;;
11486;SDS011;10510;47.942;9.442;2023-12-20T10:22:31;7.88;;;4.00;;
11486;SDS011;10510;47.942;9.442;2023-12-20T10:24:31;6.93;;;3.63;;
11486;SDS011;10510;47.942;9.442;2023-12-20T10:26:32;7.15;;;3.80;;
11486;SDS011;10510;47.942;9.442;2023-12-20T10:28:33;5.25;;;3.33;;
11486;SDS011;10510;47.942;9.442;2023-12-20T10:30:34;5.70;;;3.17;;
11486;SDS011;10510;47.942;9.442;2023-12-20T10:32:34;5.93;;;3.65;;
11486;SDS011;10510;47.942;9.442;2023-12-20T10:34:35;6.97;;;3.70;;
11486;SDS011;10510;47.942;9.442;2023-12-20T10:36:35;5.90;;;3.35;;
11486;SDS011;10510;47.942;9.442;2023-12-20T10:38:36;7.20;;;3.30;;
11486;SDS011;10510;47.942;9.442;2023-12-20T10:40:41;8.13;;;2.97;;
11486;SDS011;10510;47.942;9.442;2023-12-20T10:42:42;4.68;;;2.88;;
11486;SDS011;10510;47.942;9.442;2023-12-20T10:44:43;4.28;;;2.65;;
11486;SDS011;10510;47.942;9.442;2023-12-20T10:46:43;4.80;;;2.95;;
11486;SDS011;10510;47.942;9.442;2023-12-20T10:48:49;4.80;;;2.90;;
11486;SDS011;10510;47.942;9.442;2023-12-20T10:50:53;3.45;;;2.35;;
11486;SDS011;10510;47.942;9.442;2023-12-20T10:52:55;2.70;;;1.95;;
11486;SDS011;10510;47.942;9.442;2023-12-20T10:54:56;3.05;;;2.13;;
11486;SDS011;10510;47.942;9.442;2023-12-20T10:56:57;2.67;;;1.77;;
11486;SDS011;10510;47.942;9.442;2023-12-20T10:58:57;5.72;;;1.67;;
11486;SDS011;10510;47.942;9.442;2023-12-20T11:01:02;2.95;;;1.92;;
11486;SDS011;10510;47.942;9.442;2023-12-20T11:03:04;4.38;;;2.55;;
11486;SDS011;10510;47.942;9.442;2023-12-20T11:07:23;2.92;;;1.70;;
11486;SDS011;10510;47.942;9.442;2023-12-20T11:09:33;3.25;;;1.90;;
11486;SDS011;10510;47.942;9.442;2023-12-20T11:16:00;4.57;;;2.33;;
11486;SDS011;10510;47.942;9.442;2023-12-20T11:18:00;3.42;;;1.63;;
11486;SDS011;10510;47.942;9.442;2023-12-20T11:22:01;2.97;;;1.75;;
11486;SDS011;10510;47.942;9.442;2023-12-20T11:24:04;3.20;;;1.88;;
11486;SDS011;10510;47.942;9.442;2023-12-20T11:26:05;2.97;;;2.05;;
11486;SDS011;10510;47.942;9.442;2023-12-20T11:28:11;3.33;;;2.00;;
11486;SDS011;10510;47.942;9.442;2023-12-20T11:30:13;6.53;;;2.73;;
11486;SDS011;10510;47.942;9.442;2023-12-20T11:34:33;8.82;;;3.83;;
11486;SDS011;10510;47.942;9.442;2023-12-20T11:36:35;9.13;;;3.05;;
11486;SDS011;10510;47.942;9.442;2023-12-20T11:38:36;2.47;;;1.70;;
11486;SDS011;10510;47.942;9.442;2023-12-20T11:40:37;3.55;;;2.08;;
11486;SDS011;10510;47.942;9.442;2023-12-20T11:42:38;6.38;;;2.70;;
11486;SDS011;10510;47.942;9.442;2023-12-20T11:44:41;3.95;;;2.05;;
11486;SDS011;10510;47.942;9.442;2023-12-20T11:46:42;9.38;;;3.80;;
11486;SDS011;10510;47.942;9.442;2023-12-20T11:48:42;3.55;;;2.30;;
11486;SDS011;10510;47.942;9.442;2023-12-20T11:50:44;6.80;;;2.90;;
11486;SDS011;10510;47.942;9.442;2023-12-20T11:52:45;9.88;;;3.28;;
11486;SDS011;10510;47.942;9.442;2023-12-20T11:54:45;28.08;;;6.55;;
11486;SDS011;10510;47.942;9.442;2023-12-20T11:56:46;9.98;;;3.42;;
11486;SDS011;10510;47.942;9.442;2023-12-20T11:58:47;3.78;;;2.45;;
11486;SDS011;10510;47.942;9.442;2023-12-20T12:00:49;4.93;;;2.70;;
11486;SDS011;10510;47.942;9.442;2023-12-20T12:02:56;2.85;;;1.95;;
11486;SDS011;10510;47.942;9.442;2023-12-20T12:06:59;3.45;;;2.05;;
11486;SDS011;10510;47.942;9.442;2023-12-20T12:08:59;6.63;;;2.92;;
11486;SDS011;10510;47.942;9.442;2023-12-20T12:11:00;4.20;;;2.47;;
11486;SDS011;10510;47.942;9.442;2023-12-20T12:13:00;5.57;;;2.70;;
11486;SDS011;10510;47.942;9.442;2023-12-20T12:15:01;3.22;;;1.90;;
11486;SDS011;10510;47.942;9.442;2023-12-20T12:17:03;1.23;;;0.82;;
11486;SDS011;10510;47.942;9.442;2023-12-20T12:19:03;4.22;;;1.48;;